sensor_id;sensor_type;location;lat;lon;timestamp;temperature;humidity
56103;DHT22;41970;48.774;9.280;2024-01-25T00:01:47;10.50;99.90
56103;DHT22;41970;48.774;9.280;2024-01-25T00:04:13;10.40;99.90
56103;DHT22;41970;48.774;9.280;2024-01-25T00:06:39;10.50;99.90
56103;DHT22;41970;48.774;9.280;2024-01-25T00:09:04;10.60;99.90
56103;DHT22;41970;48.774;9.280;2024-01-25T00:11:30;10.60;99.90
56103;DHT22;41970;48.774;9.280;2024-01-25T00:13:57;10.60;99.90
56103;DHT22;41970;48.774;9.280;2024-01-25T00:16:23;10.60;99.90
56103;DHT22;41970;48.774;9.280;2024-01-25T00:18:49;10.60;99.90
56103;DHT22;41970;48.774;9.280;2024-01-25T00:21:15;10.70;99.90
56103;DHT22;41970;48.774;9.280;2024-01-25T00:23:41;10.80;99.90
56103;DHT22;41970;48.774;9.280;2024-01-25T00:26:07;10.80;99.90
56103;DHT22;41970;48.774;9.280;2024-01-25T00:28:33;10.60;99.90
56103;DHT22;41970;48.774;9.280;2024-01-25T00:30:59;10.70;99.90
56103;DHT22;41970;48.774;9.280;2024-01-25T00:33:25;10.60;99.90
56103;DHT22;41970;48.774;9.280;2024-01-25T00:35:51;10.60;99.90
56103;DHT22;41970;48.774;9.280;2024-01-25T00:38:17;10.60;99.90
56103;DHT22;41970;48.774;9.280;2024-01-25T00:40:43;10.60;99.90
56103;DHT22;41970;48.774;9.280;2024-01-25T00:43:09;10.70;99.90
56103;DHT22;41970;48.774;9.280;2024-01-25T00:45:35;10.70;99.90
56103;DHT22;41970;48.774;9.280;2024-01-25T00:48:01;10.70;99.90
56103;DHT22;41970;48.774;9.280;2024-01-25T00:50:27;10.50;99.90
56103;DHT22;41970;48.774;9.280;2024-01-25T00:52:53;10.50;99.90
56103;DHT22;41970;48.774;9.280;2024-01-25T00:55:20;10.60;99.90
56103;DHT22;41970;48.774;9.280;2024-01-25T00:57:46;10.60;99.90
56103;DHT22;41970;48.774;9.280;2024-01-25T01:00:12;10.70;99.90
56103;DHT22;41970;48.774;9.280;2024-01-25T01:02:46;10.70;99.90
56103;DHT22;41970;48.774;9.280;2024-01-25T01:05:12;10.60;99.90
56103;DHT22;41970;48.774;9.280;2024-01-25T01:07:41;10.60;99.90
56103;DHT22;41970;48.774;9.280;2024-01-25T01:10:08;10.60;99.90
56103;DHT22;41970;48.774;9.280;2024-01-25T01:12:35;10.60;99.90
56103;DHT22;41970;48.774;9.280;2024-01-25T01:15:01;10.50;99.90
56103;DHT22;41970;48.774;9.280;2024-01-25T01:17:26;10.60;99.90
56103;DHT22;41970;48.774;9.280;2024-01-25T01:19:53;10.60;99.90
56103;DHT22;41970;48.774;9.280;2024-01-25T01:22:18;10.60;99.90
56103;DHT22;41970;48.774;9.280;2024-01-25T01:24:44;10.50;99.90
56103;DHT22;41970;48.774;9.280;2024-01-25T01:27:10;10.50;99.90
56103;DHT22;41970;48.774;9.280;2024-01-25T01:29:36;10.50;99.90
56103;DHT22;41970;48.774;9.280;2024-01-25T01:32:02;10.50;99.90
56103;DHT22;41970;48.774;9.280;2024-01-25T01:34:28;10.60;99.90
56103;DHT22;41970;48.774;9.280;2024-01-25T01:36:54;10.50;99.90
56103;DHT22;41970;48.774;9.280;2024-01-25T01:39:20;10.40;99.90
56103;DHT22;41970;48.774;9.280;2024-01-25T01:41:49;10.50;99.90
56103;DHT22;41970;48.774;9.280;2024-01-25T01:44:15;10.40;99.90
56103;DHT22;41970;48.774;9.280;2024-01-25T01:46:41;10.40;99.90
56103;DHT22;41970;48.774;9.280;2024-01-25T01:49:12;10.30;99.90
56103;DHT22;41970;48.774;9.280;2024-01-25T01:51:38;10.30;99.90
56103;DHT22;41970;48.774;9.280;2024-01-25T01:54:09;10.30;99.90
56103;DHT22;41970;48.774;9.280;2024-01-25T01:56:35;10.40;99.90
56103;DHT22;41970;48.774;9.280;2024-01-25T01:59:02;10.40;99.90
56103;DHT22;41970;48.774;9.280;2024-01-25T02:01:29;10.40;99.90
56103;DHT22;41970;48.774;9.280;2024-01-25T02:03:55;10.50;99.90
56103;DHT22;41970;48.774;9.280;2024-01-25T02:06:23;10.60;99.90
56103;DHT22;41970;48.774;9.280;2024-01-25T02:08:49;10.60;99.90
56103;DHT22;41970;48.774;9.280;2024-01-25T02:11:17;10.50;99.90
56103;DHT22;41970;48.774;9.280;2024-01-25T02:13:43;10.40;99.90
56103;DHT22;41970;48.774;9.280;2024-01-25T02:16:08;10.40;99.90
56103;DHT22;41970;48.774;9.280;2024-01-25T02:18:35;10.40;99.90
56103;DHT22;41970;48.774;9.280;2024-01-25T02:21:01;10.50;99.90
56103;DHT22;41970;48.774;9.280;2024-01-25T02:23:26;10.60;99.90
56103;DHT22;41970;48.774;9.280;2024-01-25T02:25:52;10.70;99.90
56103;DHT22;41970;48.774;9.280;2024-01-25T02:28:18;10.60;99.90
56103;DHT22;41970;48.774;9.280;2024-01-25T02:30:44;10.50;99.90
56103;DHT22;41970;48.774;9.280;2024-01-25T02:33:10;10.50;99.90
56103;DHT22;41970;48.774;9.280;2024-01-25T02:35:37;10.40;99.90
56103;DHT22;41970;48.774;9.280;2024-01-25T02:38:03;10.40;99.90
56103;DHT22;41970;48.774;9.280;2024-01-25T02:40:29;10.50;99.90
56103;DHT22;41970;48.774;9.280;2024-01-25T02:42:55;10.50;99.90
56103;DHT22;41970;48.774;9.280;2024-01-25T02:45:22;10.60;99.90
56103;DHT22;41970;48.774;9.280;2024-01-25T02:47:49;10.50;99.90
56103;DHT22;41970;48.774;9.280;2024-01-25T02:50:15;10.40;99.90
56103;DHT22;41970;48.774;9.280;2024-01-25T02:52:41;10.50;99.90
56103;DHT22;41970;48.774;9.280;2024-01-25T02:55:07;10.60;99.90
56103;DHT22;41970;48.774;9.280;2024-01-25T02:57:33;10.50;99.90
56103;DHT22;41970;48.774;9.280;2024-01-25T02:59:59;10.50;99.90
56103;DHT22;41970;48.774;9.280;2024-01-25T03:02:25;10.40;99.90
56103;DHT22;41970;48.774;9.280;2024-01-25T03:04:51;10.50;99.90
56103;DHT22;41970;48.774;9.280;2024-01-25T03:07:17;10.50;99.90
56103;DHT22;41970;48.774;9.280;2024-01-25T03:09:43;10.60;99.90
56103;DHT22;41970;48.774;9.280;2024-01-25T03:12:08;10.60;99.90
56103;DHT22;41970;48.774;9.280;2024-01-25T03:14:34;10.60;99.90
56103;DHT22;41970;48.774;9.280;2024-01-25T03:17:00;10.60;99.90
56103;DHT22;41970;48.774;9.280;2024-01-25T03:19:27;10.50;99.90
56103;DHT22;41970;48.774;9.280;2024-01-25T03:21:54;10.50;99.90
56103;DHT22;41970;48.774;9.280;2024-01-25T03:24:20;10.60;99.90
56103;DHT22;41970;48.774;9.280;2024-01-25T03:26:46;10.60;99.90
56103;DHT22;41970;48.774;9.280;2024-01-25T03:29:12;10.40;99.90
56103;DHT22;41970;48.774;9.280;2024-01-25T03:31:38;10.40;99.90
56103;DHT22;41970;48.774;9.280;2024-01-25T03:34:04;10.50;99.90
56103;DHT22;41970;48.774;9.280;2024-01-25T03:36:30;10.50;99.90
56103;DHT22;41970;48.774;9.280;2024-01-25T03:38:57;10.60;99.90
56103;DHT22;41970;48.774;9.280;2024-01-25T03:41:23;10.60;99.90
56103;DHT22;41970;48.774;9.280;2024-01-25T03:43:49;10.60;99.90
56103;DHT22;41970;48.774;9.280;2024-01-25T03:46:15;10.40;99.90
56103;DHT22;41970;48.774;9.280;2024-01-25T03:48:42;10.40;99.90
56103;DHT22;41970;48.774;9.280;2024-01-25T03:51:08;10.50;99.90
56103;DHT22;41970;48.774;9.280;2024-01-25T03:53:34;10.60;99.90
56103;DHT22;41970;48.774;9.280;2024-01-25T03:56:00;10.70;99.90
56103;DHT22;41970;48.774;9.280;2024-01-25T03:58:26;10.60;99.90
56103;DHT22;41970;48.774;9.280;2024-01-25T04:00:52;10.50;99.90
56103;DHT22;41970;48.774;9.280;2024-01-25T04:03:18;10.50;99.90
56103;DHT22;41970;48.774;9.280;2024-01-25T04:05:43;10.40;99.90
56103;DHT22;41970;48.774;9.280;2024-01-25T04:08:09;10.40;99.90
56103;DHT22;41970;48.774;9.280;2024-01-25T04:10:35;10.50;99.90
56103;DHT22;41970;48.774;9.280;2024-01-25T04:13:01;10.50;99.90
56103;DHT22;41970;48.774;9.280;2024-01-25T04:15:30;10.50;99.90
56103;DHT22;41970;48.774;9.280;2024-01-25T04:17:56;10.50;99.90
56103;DHT22;41970;48.774;9.280;2024-01-25T04:20:22;10.50;99.90
56103;DHT22;41970;48.774;9.280;2024-01-25T04:22:47;10.50;99.90
56103;DHT22;41970;48.774;9.280;2024-01-25T04:25:13;10.50;99.90
56103;DHT22;41970;48.774;9.280;2024-01-25T04:27:39;10.40;99.90
56103;DHT22;41970;48.774;9.280;2024-01-25T04:30:08;10.50;99.90
56103;DHT22;41970;48.774;9.280;2024-01-25T04:32:35;10.50;99.90
56103;DHT22;41970;48.774;9.280;2024-01-25T04:35:01;10.50;99.90
56103;DHT22;41970;48.774;9.280;2024-01-25T04:37:27;10.50;99.90
56103;DHT22;41970;48.774;9.280;2024-01-25T04:39:53;10.60;99.90
56103;DHT22;41970;48.774;9.280;2024-01-25T04:42:18;10.60;99.90
56103;DHT22;41970;48.774;9.280;2024-01-25T04:44:45;10.60;99.90
56103;DHT22;41970;48.774;9.280;2024-01-25T04:47:10;10.60;99.90
56103;DHT22;41970;48.774;9.280;2024-01-25T04:49:36;10.60;99.90
56103;DHT22;41970;48.774;9.280;2024-01-25T04:52:02;10.50;99.90
56103;DHT22;41970;48.774;9.280;2024-01-25T04:54:28;10.30;99.90
56103;DHT22;41970;48.774;9.280;2024-01-25T04:56:55;10.20;99.90
56103;DHT22;41970;48.774;9.280;2024-01-25T04:59:20;10.20;99.90
56103;DHT22;41970;48.774;9.280;2024-01-25T05:01:46;10.30;99.90
56103;DHT22;41970;48.774;9.280;2024-01-25T05:04:12;10.40;99.90
56103;DHT22;41970;48.774;9.280;2024-01-25T05:06:38;10.30;99.90
56103;DHT22;41970;48.774;9.280;2024-01-25T05:09:04;10.20;99.90
56103;DHT22;41970;48.774;9.280;2024-01-25T05:11:30;10.20;99.90
56103;DHT22;41970;48.774;9.280;2024-01-25T05:13:56;10.30;99.90
56103;DHT22;41970;48.774;9.280;2024-01-25T05:16:22;10.40;99.90
56103;DHT22;41970;48.774;9.280;2024-01-25T05:18:47;10.40;99.90
56103;DHT22;41970;48.774;9.280;2024-01-25T05:21:13;10.30;99.90
56103;DHT22;41970;48.774;9.280;2024-01-25T05:23:39;10.30;99.90
56103;DHT22;41970;48.774;9.280;2024-01-25T05:26:06;10.40;99.90
56103;DHT22;41970;48.774;9.280;2024-01-25T05:28:32;10.40;99.90
56103;DHT22;41970;48.774;9.280;2024-01-25T05:30:58;10.40;99.90
56103;DHT22;41970;48.774;9.280;2024-01-25T05:33:23;10.40;99.90
56103;DHT22;41970;48.774;9.280;2024-01-25T05:35:49;10.40;99.90
56103;DHT22;41970;48.774;9.280;2024-01-25T05:38:15;10.30;99.90
56103;DHT22;41970;48.774;9.280;2024-01-25T05:40:42;10.20;99.90
56103;DHT22;41970;48.774;9.280;2024-01-25T05:43:08;10.20;99.90
56103;DHT22;41970;48.774;9.280;2024-01-25T05:45:33;10.20;99.90
56103;DHT22;41970;48.774;9.280;2024-01-25T05:47:59;10.20;99.90
56103;DHT22;41970;48.774;9.280;2024-01-25T05:50:25;10.20;99.90
56103;DHT22;41970;48.774;9.280;2024-01-25T05:52:51;10.20;99.90
56103;DHT22;41970;48.774;9.280;2024-01-25T05:55:17;10.20;99.90
56103;DHT22;41970;48.774;9.280;2024-01-25T05:57:43;10.30;99.90
56103;DHT22;41970;48.774;9.280;2024-01-25T06:00:12;10.10;99.90
56103;DHT22;41970;48.774;9.280;2024-01-25T06:02:39;10.20;99.90
56103;DHT22;41970;48.774;9.280;2024-01-25T06:05:05;10.10;99.90
56103;DHT22;41970;48.774;9.280;2024-01-25T06:07:31;10.10;99.90
56103;DHT22;41970;48.774;9.280;2024-01-25T06:09:57;10.10;99.90
56103;DHT22;41970;48.774;9.280;2024-01-25T06:12:23;10.10;99.90
56103;DHT22;41970;48.774;9.280;2024-01-25T06:14:49;10.10;99.90
56103;DHT22;41970;48.774;9.280;2024-01-25T06:17:15;10.20;99.90
56103;DHT22;41970;48.774;9.280;2024-01-25T06:19:41;10.20;99.90
56103;DHT22;41970;48.774;9.280;2024-01-25T06:22:06;10.10;99.90
56103;DHT22;41970;48.774;9.280;2024-01-25T06:24:32;10.20;99.90
56103;DHT22;41970;48.774;9.280;2024-01-25T06:26:58;10.20;99.90
56103;DHT22;41970;48.774;9.280;2024-01-25T06:29:24;10.10;99.90
56103;DHT22;41970;48.774;9.280;2024-01-25T06:31:50;9.90;99.90
56103;DHT22;41970;48.774;9.280;2024-01-25T06:34:15;9.90;99.90
56103;DHT22;41970;48.774;9.280;2024-01-25T06:36:41;9.70;99.90
56103;DHT22;41970;48.774;9.280;2024-01-25T06:39:07;9.50;99.90
56103;DHT22;41970;48.774;9.280;2024-01-25T06:41:34;9.30;99.90
56103;DHT22;41970;48.774;9.280;2024-01-25T06:44:00;9.00;99.90
56103;DHT22;41970;48.774;9.280;2024-01-25T06:46:26;8.90;99.90
56103;DHT22;41970;48.774;9.280;2024-01-25T06:48:52;8.90;99.90
56103;DHT22;41970;48.774;9.280;2024-01-25T06:51:18;8.80;99.90
56103;DHT22;41970;48.774;9.280;2024-01-25T06:53:44;8.50;99.90
56103;DHT22;41970;48.774;9.280;2024-01-25T06:56:09;8.50;99.90
56103;DHT22;41970;48.774;9.280;2024-01-25T06:58:35;8.30;99.90
56103;DHT22;41970;48.774;9.280;2024-01-25T07:01:01;8.00;99.90
56103;DHT22;41970;48.774;9.280;2024-01-25T07:03:30;7.60;99.90
56103;DHT22;41970;48.774;9.280;2024-01-25T07:05:55;7.60;99.90
56103;DHT22;41970;48.774;9.280;2024-01-25T07:08:21;7.70;99.90
56103;DHT22;41970;48.774;9.280;2024-01-25T07:10:47;7.50;99.90
56103;DHT22;41970;48.774;9.280;2024-01-25T07:13:13;7.30;99.90
56103;DHT22;41970;48.774;9.280;2024-01-25T07:15:39;7.30;99.90
56103;DHT22;41970;48.774;9.280;2024-01-25T07:18:05;7.30;99.90
56103;DHT22;41970;48.774;9.280;2024-01-25T07:20:31;7.40;99.90
56103;DHT22;41970;48.774;9.280;2024-01-25T07:22:56;7.30;99.90
56103;DHT22;41970;48.774;9.280;2024-01-25T07:25:22;7.30;99.90
56103;DHT22;41970;48.774;9.280;2024-01-25T07:27:48;7.40;99.90
56103;DHT22;41970;48.774;9.280;2024-01-25T07:30:17;7.30;99.90
56103;DHT22;41970;48.774;9.280;2024-01-25T07:32:43;7.20;99.90
56103;DHT22;41970;48.774;9.280;2024-01-25T07:35:12;7.20;99.90
56103;DHT22;41970;48.774;9.280;2024-01-25T07:37:38;7.10;99.90
56103;DHT22;41970;48.774;9.280;2024-01-25T07:40:05;7.00;99.90
56103;DHT22;41970;48.774;9.280;2024-01-25T07:42:32;7.00;99.90
56103;DHT22;41970;48.774;9.280;2024-01-25T07:44:58;6.90;99.90
56103;DHT22;41970;48.774;9.280;2024-01-25T07:47:24;6.80;99.90
56103;DHT22;41970;48.774;9.280;2024-01-25T07:49:49;6.70;99.90
56103;DHT22;41970;48.774;9.280;2024-01-25T07:52:15;6.60;99.90
56103;DHT22;41970;48.774;9.280;2024-01-25T07:54:41;6.70;99.90
56103;DHT22;41970;48.774;9.280;2024-01-25T07:57:07;6.70;99.90
56103;DHT22;41970;48.774;9.280;2024-01-25T07:59:33;6.50;99.90
56103;DHT22;41970;48.774;9.280;2024-01-25T08:01:59;6.30;99.90
56103;DHT22;41970;48.774;9.280;2024-01-25T08:04:24;6.30;99.90
56103;DHT22;41970;48.774;9.280;2024-01-25T08:06:52;6.30;99.90
56103;DHT22;41970;48.774;9.280;2024-01-25T08:09:17;6.30;99.90
56103;DHT22;41970;48.774;9.280;2024-01-25T08:11:44;6.30;99.90
56103;DHT22;41970;48.774;9.280;2024-01-25T08:14:10;6.40;99.90
56103;DHT22;41970;48.774;9.280;2024-01-25T08:16:37;6.60;99.90
56103;DHT22;41970;48.774;9.280;2024-01-25T08:19:02;6.60;99.90
56103;DHT22;41970;48.774;9.280;2024-01-25T08:21:28;6.70;99.90
56103;DHT22;41970;48.774;9.280;2024-01-25T08:23:54;6.90;99.90
56103;DHT22;41970;48.774;9.280;2024-01-25T08:26:20;7.40;99.90
56103;DHT22;41970;48.774;9.280;2024-01-25T08:28:46;7.70;99.90
56103;DHT22;41970;48.774;9.280;2024-01-25T08:31:12;8.00;99.90
56103;DHT22;41970;48.774;9.280;2024-01-25T08:33:39;8.10;99.90
56103;DHT22;41970;48.774;9.280;2024-01-25T08:36:10;8.80;99.90
56103;DHT22;41970;48.774;9.280;2024-01-25T08:38:36;9.10;99.90
56103;DHT22;41970;48.774;9.280;2024-01-25T08:41:02;9.00;99.90
56103;DHT22;41970;48.774;9.280;2024-01-25T08:43:28;9.40;99.90
56103;DHT22;41970;48.774;9.280;2024-01-25T08:45:54;10.20;99.90
56103;DHT22;41970;48.774;9.280;2024-01-25T08:48:20;11.10;99.90
56103;DHT22;41970;48.774;9.280;2024-01-25T08:50:46;11.80;99.90
56103;DHT22;41970;48.774;9.280;2024-01-25T08:53:14;12.40;99.90
56103;DHT22;41970;48.774;9.280;2024-01-25T08:55:40;12.60;99.90
56103;DHT22;41970;48.774;9.280;2024-01-25T08:58:06;12.90;99.90
56103;DHT22;41970;48.774;9.280;2024-01-25T09:00:32;13.60;99.90
56103;DHT22;41970;48.774;9.280;2024-01-25T09:02:58;13.80;99.90
56103;DHT22;41970;48.774;9.280;2024-01-25T09:05:24;14.00;99.90
56103;DHT22;41970;48.774;9.280;2024-01-25T09:07:53;14.50;99.90
56103;DHT22;41970;48.774;9.280;2024-01-25T09:10:19;14.80;99.90
56103;DHT22;41970;48.774;9.280;2024-01-25T09:12:45;15.20;99.10
56103;DHT22;41970;48.774;9.280;2024-01-25T09:15:11;14.60;99.70
56103;DHT22;41970;48.774;9.280;2024-01-25T09:17:37;14.60;99.80
56103;DHT22;41970;48.774;9.280;2024-01-25T09:20:03;14.80;99.30
56103;DHT22;41970;48.774;9.280;2024-01-25T09:22:29;15.10;99.10
56103;DHT22;41970;48.774;9.280;2024-01-25T09:24:55;14.80;99.10
56103;DHT22;41970;48.774;9.280;2024-01-25T09:27:20;14.60;99.10
56103;DHT22;41970;48.774;9.280;2024-01-25T09:29:46;14.60;98.20
56103;DHT22;41970;48.774;9.280;2024-01-25T09:32:12;14.50;98.20
56103;DHT22;41970;48.774;9.280;2024-01-25T09:34:38;14.20;98.40
56103;DHT22;41970;48.774;9.280;2024-01-25T09:37:05;14.20;98.30
56103;DHT22;41970;48.774;9.280;2024-01-25T09:39:34;13.80;99.50
56103;DHT22;41970;48.774;9.280;2024-01-25T09:42:02;13.80;99.10
56103;DHT22;41970;48.774;9.280;2024-01-25T09:44:28;13.70;98.60
56103;DHT22;41970;48.774;9.280;2024-01-25T09:46:55;13.70;98.50
56103;DHT22;41970;48.774;9.280;2024-01-25T09:49:21;13.60;99.00
56103;DHT22;41970;48.774;9.280;2024-01-25T09:51:47;13.30;99.30
56103;DHT22;41970;48.774;9.280;2024-01-25T09:54:16;13.00;99.30
56103;DHT22;41970;48.774;9.280;2024-01-25T09:56:42;12.50;99.50
56103;DHT22;41970;48.774;9.280;2024-01-25T09:59:08;12.10;99.90
56103;DHT22;41970;48.774;9.280;2024-01-25T10:01:35;12.00;99.90
56103;DHT22;41970;48.774;9.280;2024-01-25T10:04:01;11.80;99.90
56103;DHT22;41970;48.774;9.280;2024-01-25T10:06:26;11.80;99.90
56103;DHT22;41970;48.774;9.280;2024-01-25T10:08:53;11.90;99.90
56103;DHT22;41970;48.774;9.280;2024-01-25T10:11:19;11.70;99.90
56103;DHT22;41970;48.774;9.280;2024-01-25T10:13:47;11.60;99.90
56103;DHT22;41970;48.774;9.280;2024-01-25T10:16:14;11.60;99.90
56103;DHT22;41970;48.774;9.280;2024-01-25T10:18:41;11.60;99.90
56103;DHT22;41970;48.774;9.280;2024-01-25T10:21:11;11.60;99.90
56103;DHT22;41970;48.774;9.280;2024-01-25T10:23:38;11.60;99.90
56103;DHT22;41970;48.774;9.280;2024-01-25T10:26:04;11.50;99.90
56103;DHT22;41970;48.774;9.280;2024-01-25T10:28:30;11.50;99.90
56103;DHT22;41970;48.774;9.280;2024-01-25T10:31:01;11.60;99.90
56103;DHT22;41970;48.774;9.280;2024-01-25T10:33:28;11.70;99.90
56103;DHT22;41970;48.774;9.280;2024-01-25T10:35:54;11.70;99.90
56103;DHT22;41970;48.774;9.280;2024-01-25T10:38:24;11.80;99.90
56103;DHT22;41970;48.774;9.280;2024-01-25T10:40:50;11.80;99.90
56103;DHT22;41970;48.774;9.280;2024-01-25T10:43:18;11.80;99.90
56103;DHT22;41970;48.774;9.280;2024-01-25T10:45:44;11.70;99.90
56103;DHT22;41970;48.774;9.280;2024-01-25T10:48:11;11.80;99.90
56103;DHT22;41970;48.774;9.280;2024-01-25T10:50:37;11.90;99.90
56103;DHT22;41970;48.774;9.280;2024-01-25T10:53:06;11.80;99.90
56103;DHT22;41970;48.774;9.280;2024-01-25T10:55:33;11.90;99.90
56103;DHT22;41970;48.774;9.280;2024-01-25T10:57:59;12.00;99.90
56103;DHT22;41970;48.774;9.280;2024-01-25T11:00:25;12.10;99.90
56103;DHT22;41970;48.774;9.280;2024-01-25T11:02:51;12.20;99.90
56103;DHT22;41970;48.774;9.280;2024-01-25T11:05:17;12.20;99.60
56103;DHT22;41970;48.774;9.280;2024-01-25T11:07:50;12.20;99.80
56103;DHT22;41970;48.774;9.280;2024-01-25T11:10:24;12.20;99.80
56103;DHT22;41970;48.774;9.280;2024-01-25T11:13:01;12.10;99.90
56103;DHT22;41970;48.774;9.280;2024-01-25T11:15:34;12.10;99.90
56103;DHT22;41970;48.774;9.280;2024-01-25T11:18:01;12.20;99.90
56103;DHT22;41970;48.774;9.280;2024-01-25T11:20:29;12.20;99.80
56103;DHT22;41970;48.774;9.280;2024-01-25T11:23:03;11.90;99.90
56103;DHT22;41970;48.774;9.280;2024-01-25T11:25:37;12.00;99.90
56103;DHT22;41970;48.774;9.280;2024-01-25T11:28:04;12.10;99.90
56103;DHT22;41970;48.774;9.280;2024-01-25T11:30:33;12.10;99.90
56103;DHT22;41970;48.774;9.280;2024-01-25T11:32:59;12.10;99.80
56103;DHT22;41970;48.774;9.280;2024-01-25T11:35:27;12.20;99.90
56103;DHT22;41970;48.774;9.280;2024-01-25T11:37:53;12.30;99.90
56103;DHT22;41970;48.774;9.280;2024-01-25T11:40:19;12.30;99.90
56103;DHT22;41970;48.774;9.280;2024-01-25T11:42:50;12.30;99.90
56103;DHT22;41970;48.774;9.280;2024-01-25T11:45:16;12.20;99.90
56103;DHT22;41970;48.774;9.280;2024-01-25T11:47:43;12.10;99.90
56103;DHT22;41970;48.774;9.280;2024-01-25T11:50:11;12.10;99.90
56103;DHT22;41970;48.774;9.280;2024-01-25T11:52:38;12.20;99.90
56103;DHT22;41970;48.774;9.280;2024-01-25T11:55:08;12.20;99.90
56103;DHT22;41970;48.774;9.280;2024-01-25T11:57:39;12.10;99.90
56103;DHT22;41970;48.774;9.280;2024-01-25T12:00:08;12.10;99.90
56103;DHT22;41970;48.774;9.280;2024-01-25T12:02:36;12.00;99.90
56103;DHT22;41970;48.774;9.280;2024-01-25T12:05:03;12.00;99.90
56103;DHT22;41970;48.774;9.280;2024-01-25T12:07:33;11.80;99.90
56103;DHT22;41970;48.774;9.280;2024-01-25T12:10:03;11.70;99.90
56103;DHT22;41970;48.774;9.280;2024-01-25T12:12:29;11.80;99.90
56103;DHT22;41970;48.774;9.280;2024-01-25T12:15:02;11.80;99.90
56103;DHT22;41970;48.774;9.280;2024-01-25T12:17:30;11.80;99.90
56103;DHT22;41970;48.774;9.280;2024-01-25T12:19:59;11.90;99.60
56103;DHT22;41970;48.774;9.280;2024-01-25T12:22:29;11.80;99.80
56103;DHT22;41970;48.774;9.280;2024-01-25T12:24:56;11.90;99.80
56103;DHT22;41970;48.774;9.280;2024-01-25T12:27:23;11.90;99.40
56103;DHT22;41970;48.774;9.280;2024-01-25T12:29:50;11.80;99.40
56103;DHT22;41970;48.774;9.280;2024-01-25T12:32:21;11.70;99.60
56103;DHT22;41970;48.774;9.280;2024-01-25T12:34:55;11.60;99.90
56103;DHT22;41970;48.774;9.280;2024-01-25T12:37:21;11.70;99.90
56103;DHT22;41970;48.774;9.280;2024-01-25T12:39:47;11.90;99.70
56103;DHT22;41970;48.774;9.280;2024-01-25T12:42:13;11.90;99.50
56103;DHT22;41970;48.774;9.280;2024-01-25T12:44:39;12.00;99.70
56103;DHT22;41970;48.774;9.280;2024-01-25T12:47:05;11.90;99.90
56103;DHT22;41970;48.774;9.280;2024-01-25T12:49:35;11.90;99.90
56103;DHT22;41970;48.774;9.280;2024-01-25T12:52:01;11.90;99.90
56103;DHT22;41970;48.774;9.280;2024-01-25T12:54:27;12.00;99.90
56103;DHT22;41970;48.774;9.280;2024-01-25T12:56:54;12.00;99.90
56103;DHT22;41970;48.774;9.280;2024-01-25T12:59:20;12.10;99.90
56103;DHT22;41970;48.774;9.280;2024-01-25T13:01:46;12.10;99.90
56103;DHT22;41970;48.774;9.280;2024-01-25T13:04:12;12.00;99.90
56103;DHT22;41970;48.774;9.280;2024-01-25T13:06:38;12.00;99.90
56103;DHT22;41970;48.774;9.280;2024-01-25T13:09:04;12.00;99.90
56103;DHT22;41970;48.774;9.280;2024-01-25T13:11:30;11.90;99.90
56103;DHT22;41970;48.774;9.280;2024-01-25T13:13:55;12.00;99.90
56103;DHT22;41970;48.774;9.280;2024-01-25T13:16:22;12.00;99.90
56103;DHT22;41970;48.774;9.280;2024-01-25T13:18:47;12.00;99.90
56103;DHT22;41970;48.774;9.280;2024-01-25T13:21:13;12.10;99.90
56103;DHT22;41970;48.774;9.280;2024-01-25T13:23:39;12.10;99.90
56103;DHT22;41970;48.774;9.280;2024-01-25T13:26:05;12.30;99.90
56103;DHT22;41970;48.774;9.280;2024-01-25T13:28:31;12.20;99.90
56103;DHT22;41970;48.774;9.280;2024-01-25T13:30:57;12.10;99.90
56103;DHT22;41970;48.774;9.280;2024-01-25T13:33:24;12.00;99.90
56103;DHT22;41970;48.774;9.280;2024-01-25T13:35:50;12.10;99.90
56103;DHT22;41970;48.774;9.280;2024-01-25T13:38:16;12.10;99.90
56103;DHT22;41970;48.774;9.280;2024-01-25T13:40:42;12.10;99.90
56103;DHT22;41970;48.774;9.280;2024-01-25T13:43:08;12.20;99.90
56103;DHT22;41970;48.774;9.280;2024-01-25T13:45:34;12.20;99.90
56103;DHT22;41970;48.774;9.280;2024-01-25T13:48:00;12.20;99.90
56103;DHT22;41970;48.774;9.280;2024-01-25T13:50:26;12.20;99.90
56103;DHT22;41970;48.774;9.280;2024-01-25T13:52:51;12.10;99.90
56103;DHT22;41970;48.774;9.280;2024-01-25T13:55:17;12.00;99.90
56103;DHT22;41970;48.774;9.280;2024-01-25T13:57:43;12.10;99.90
56103;DHT22;41970;48.774;9.280;2024-01-25T14:00:09;12.10;99.90
56103;DHT22;41970;48.774;9.280;2024-01-25T14:02:35;12.20;99.90
56103;DHT22;41970;48.774;9.280;2024-01-25T14:05:01;12.20;99.90
56103;DHT22;41970;48.774;9.280;2024-01-25T14:07:27;12.20;99.90
56103;DHT22;41970;48.774;9.280;2024-01-25T14:09:53;12.30;99.90
56103;DHT22;41970;48.774;9.280;2024-01-25T14:12:19;12.30;99.90
56103;DHT22;41970;48.774;9.280;2024-01-25T14:14:45;12.10;99.90
56103;DHT22;41970;48.774;9.280;2024-01-25T14:17:11;12.20;99.90
56103;DHT22;41970;48.774;9.280;2024-01-25T14:19:36;12.20;99.90
56103;DHT22;41970;48.774;9.280;2024-01-25T14:22:02;12.20;99.90
56103;DHT22;41970;48.774;9.280;2024-01-25T14:24:28;12.30;99.90
56103;DHT22;41970;48.774;9.280;2024-01-25T14:26:54;12.20;99.90
56103;DHT22;41970;48.774;9.280;2024-01-25T14:29:20;12.10;99.90
56103;DHT22;41970;48.774;9.280;2024-01-25T14:31:46;12.10;99.90
56103;DHT22;41970;48.774;9.280;2024-01-25T14:34:12;12.10;99.90
56103;DHT22;41970;48.774;9.280;2024-01-25T14:36:37;12.10;99.90
56103;DHT22;41970;48.774;9.280;2024-01-25T14:39:03;12.10;99.90
56103;DHT22;41970;48.774;9.280;2024-01-25T14:41:30;12.10;99.90
56103;DHT22;41970;48.774;9.280;2024-01-25T14:43:57;12.20;99.90
56103;DHT22;41970;48.774;9.280;2024-01-25T14:46:22;12.10;99.90
56103;DHT22;41970;48.774;9.280;2024-01-25T14:48:48;12.20;99.90
56103;DHT22;41970;48.774;9.280;2024-01-25T14:51:14;12.20;99.90
56103;DHT22;41970;48.774;9.280;2024-01-25T14:53:40;12.20;99.90
56103;DHT22;41970;48.774;9.280;2024-01-25T14:56:06;12.20;99.90
56103;DHT22;41970;48.774;9.280;2024-01-25T14:58:31;12.20;99.90
56103;DHT22;41970;48.774;9.280;2024-01-25T15:00:57;12.20;99.90
56103;DHT22;41970;48.774;9.280;2024-01-25T15:03:23;12.20;99.90
56103;DHT22;41970;48.774;9.280;2024-01-25T15:05:49;12.20;99.90
56103;DHT22;41970;48.774;9.280;2024-01-25T15:08:15;12.20;99.90
56103;DHT22;41970;48.774;9.280;2024-01-25T15:10:40;12.20;99.90
56103;DHT22;41970;48.774;9.280;2024-01-25T15:13:06;12.10;99.90
56103;DHT22;41970;48.774;9.280;2024-01-25T15:15:32;11.80;99.90
56103;DHT22;41970;48.774;9.280;2024-01-25T15:17:58;11.50;99.90
56103;DHT22;41970;48.774;9.280;2024-01-25T15:20:24;11.40;99.90
56103;DHT22;41970;48.774;9.280;2024-01-25T15:22:50;11.40;99.90
56103;DHT22;41970;48.774;9.280;2024-01-25T15:25:17;11.30;99.90
56103;DHT22;41970;48.774;9.280;2024-01-25T15:27:43;11.20;99.90